createdAt,value
2022-10-14T00:01:40.474Z,31.73
2022-10-14T00:04:07.009Z,31.85
2022-10-14T00:06:34.205Z,31.65
2022-10-14T00:09:03.513Z,32.28
2022-10-14T00:11:31.835Z,32.92
2022-10-14T00:14:03.064Z,35.22
2022-10-14T00:16:33.206Z,37.47
2022-10-14T00:19:00.298Z,37.92
2022-10-14T00:21:27.700Z,37.50
2022-10-14T00:23:54.695Z,37.78
2022-10-14T00:26:24.159Z,39.40
2022-10-14T00:28:51.331Z,39.38
2022-10-14T00:31:18.061Z,39.40
2022-10-14T00:33:45.264Z,39.78
2022-10-14T00:36:14.080Z,40.15
2022-10-14T00:38:40.760Z,40.38
2022-10-14T00:41:08.552Z,41.13
2022-10-14T00:43:51.661Z,41.25
2022-10-14T00:46:18.430Z,43.67
2022-10-14T00:48:45.370Z,45.28
2022-10-14T00:51:11.948Z,43.58
2022-10-14T00:53:39.784Z,42.83
2022-10-14T00:56:07.711Z,43.83
2022-10-14T00:58:34.276Z,43.45
2022-10-14T01:01:00.783Z,41.75
2022-10-14T01:03:27.403Z,43.30
2022-10-14T01:06:15.053Z,43.10
2022-10-14T01:08:49.604Z,42.88
2022-10-14T01:11:23.407Z,44.42
2022-10-14T01:14:14.694Z,43.95
2022-10-14T01:19:59.615Z,41.80
2022-10-14T01:22:31.981Z,43.47
2022-10-14T01:25:17.124Z,41.55
2022-10-14T01:27:47.004Z,43.30
2022-10-14T01:30:17.781Z,45.75
2022-10-14T01:32:44.265Z,46.20
2022-10-14T01:35:26.299Z,47.00
2022-10-14T01:37:57.053Z,46.15
2022-10-14T01:40:39.611Z,48.65
2022-10-14T01:43:06.302Z,46.90
2022-10-14T01:45:34.896Z,46.20
2022-10-14T01:48:02.048Z,48.40
2022-10-14T01:50:30.144Z,49.70
2022-10-14T01:53:03.558Z,50.53
2022-10-14T01:55:35.089Z,49.85
2022-10-14T01:58:01.851Z,47.05
2022-10-14T02:00:28.370Z,49.28
2022-10-14T02:02:54.853Z,49.80
2022-10-14T02:05:27.419Z,48.28
2022-10-14T02:07:59.892Z,46.58
2022-10-14T02:11:02.581Z,48.38
2022-10-14T02:13:49.085Z,43.13
2022-10-14T02:16:18.546Z,42.00
2022-10-14T02:18:58.604Z,43.63
2022-10-14T02:24:40.846Z,43.17
2022-10-14T02:27:11.832Z,45.03
2022-10-14T02:29:39.089Z,44.90
2022-10-14T02:32:06.761Z,44.55
2022-10-14T02:34:34.084Z,46.65
2022-10-14T02:37:01.530Z,46.38
2022-10-14T02:39:31.279Z,45.00
2022-10-14T02:41:57.894Z,43.28
2022-10-14T02:44:24.470Z,45.17
2022-10-14T02:46:50.980Z,43.47
2022-10-14T02:49:17.774Z,42.70
2022-10-14T02:51:44.237Z,40.38
2022-10-14T02:54:10.805Z,43.92
2022-10-14T02:56:37.590Z,43.20
2022-10-14T02:59:04.102Z,41.25
2022-10-14T03:01:33.779Z,44.72
2022-10-14T03:04:03.777Z,43.30
2022-10-14T03:06:30.291Z,43.47
2022-10-14T03:08:56.884Z,42.83
2022-10-14T03:11:23.392Z,42.55
2022-10-14T03:13:49.864Z,46.22
2022-10-14T03:16:16.359Z,48.10
2022-10-14T03:18:42.863Z,48.25
2022-10-14T03:21:09.392Z,48.25
2022-10-14T03:23:35.860Z,50.13
2022-10-14T03:26:02.357Z,50.63
2022-10-14T03:28:28.960Z,46.22
2022-10-14T03:30:55.471Z,49.22
2022-10-14T03:33:25.539Z,50.60
2022-10-14T03:35:52.972Z,51.33
2022-10-14T03:38:19.624Z,51.70
2022-10-14T03:40:46.231Z,52.70
2022-10-14T03:43:12.804Z,49.97
2022-10-14T03:45:39.270Z,51.63
2022-10-14T03:48:05.947Z,51.03
2022-10-14T03:50:32.588Z,52.75
2022-10-14T03:52:59.072Z,52.53
2022-10-14T03:55:25.664Z,48.42
2022-10-14T03:57:52.124Z,48.55
2022-10-14T04:00:18.744Z,51.00
2022-10-14T04:02:45.206Z,49.60
2022-10-14T04:05:11.717Z,50.83
2022-10-14T04:07:38.266Z,49.88
2022-10-14T04:10:05.557Z,53.67
2022-10-14T04:12:32.544Z,47.42
2022-10-14T04:14:59.008Z,46.80
2022-10-14T04:17:26.081Z,46.83
2022-10-14T04:19:53.056Z,45.65
2022-10-14T04:22:19.970Z,46.00
2022-10-14T04:24:46.767Z,43.90
2022-10-14T04:27:13.409Z,47.15
2022-10-14T04:29:40.184Z,45.58
2022-10-14T04:32:06.792Z,43.35
2022-10-14T04:34:33.320Z,44.35
2022-10-14T04:36:59.784Z,41.70
2022-10-14T04:39:26.496Z,41.65
2022-10-14T04:41:52.962Z,40.30
2022-10-14T04:44:19.693Z,40.42
2022-10-14T04:46:46.190Z,35.83
2022-10-14T04:49:12.841Z,33.17
2022-10-14T04:51:39.402Z,30.75
2022-10-14T04:54:05.912Z,22.52
2022-10-14T04:56:32.441Z,22.13
2022-10-14T04:58:58.958Z,24.02
2022-10-14T05:01:27.267Z,24.67
2022-10-14T05:03:56.880Z,22.25
2022-10-14T05:06:23.463Z,23.40
2022-10-14T05:08:49.958Z,25.20
2022-10-14T05:11:16.469Z,26.15
2022-10-14T05:13:43.008Z,26.48
2022-10-14T05:16:09.572Z,27.20
2022-10-14T05:18:36.161Z,26.85
2022-10-14T05:21:02.664Z,27.45
2022-10-14T05:23:29.248Z,27.75
2022-10-14T05:25:56.120Z,30.08
2022-10-14T05:28:22.708Z,30.55
2022-10-14T05:30:49.868Z,30.75
2022-10-14T05:33:16.448Z,30.83
2022-10-14T05:35:59.754Z,31.48
2022-10-14T05:38:26.771Z,32.35
2022-10-14T05:40:57.364Z,31.15
2022-10-14T05:43:29.303Z,31.90
2022-10-14T05:45:57.776Z,31.65
2022-10-14T05:48:24.306Z,32.42
2022-10-14T05:50:50.785Z,31.38
2022-10-14T05:53:17.323Z,32.88
2022-10-14T05:55:43.848Z,32.83
2022-10-14T05:58:10.358Z,35.20
2022-10-14T06:00:36.912Z,33.95
2022-10-14T06:03:03.531Z,36.35
2022-10-14T06:05:30.128Z,38.65
2022-10-14T06:07:56.839Z,37.60
2022-10-14T06:10:23.472Z,41.85
2022-10-14T06:12:49.993Z,40.45
2022-10-14T06:15:16.562Z,38.97
2022-10-14T06:17:43.221Z,41.97
2022-10-14T06:20:10.236Z,41.42
2022-10-14T06:22:36.786Z,40.67
2022-10-14T06:25:04.621Z,40.33
2022-10-14T06:27:31.344Z,39.20
2022-10-14T06:29:57.833Z,38.55
2022-10-14T06:32:24.729Z,39.88
2022-10-14T06:34:51.523Z,38.67
2022-10-14T06:37:18.056Z,35.45
2022-10-14T06:39:45.191Z,37.60
2022-10-14T06:42:13.147Z,36.20
2022-10-14T06:44:39.971Z,36.20
2022-10-14T06:47:07.888Z,34.08
2022-10-14T06:49:34.531Z,33.28
2022-10-14T06:52:01.027Z,36.42
2022-10-14T06:54:27.501Z,35.40
2022-10-14T06:56:53.967Z,37.67
2022-10-14T06:59:20.694Z,37.65
2022-10-14T07:01:47.306Z,37.03
2022-10-14T07:04:14.007Z,36.30
2022-10-14T07:06:40.517Z,35.88
2022-10-14T07:09:06.983Z,37.47
2022-10-14T07:11:33.507Z,37.67
2022-10-14T07:14:00.451Z,36.03
2022-10-14T07:16:28.081Z,33.53
2022-10-14T07:18:54.599Z,34.85
2022-10-14T07:21:21.263Z,34.45
2022-10-14T07:23:47.989Z,33.15
2022-10-14T07:26:14.585Z,35.25
2022-10-14T07:28:41.115Z,33.20
2022-10-14T07:31:09.423Z,35.22
2022-10-14T07:36:13.049Z,34.88
2022-10-14T07:38:41.048Z,33.03
2022-10-14T07:41:16.851Z,33.33
2022-10-14T07:43:45.368Z,29.60
2022-10-14T07:46:12.682Z,30.20
2022-10-14T07:48:52.630Z,26.65
2022-10-14T07:51:23.285Z,24.02
2022-10-14T07:53:50.200Z,24.83
2022-10-14T07:56:16.749Z,24.77
2022-10-14T07:58:44.653Z,24.67
2022-10-14T08:01:11.484Z,25.90
2022-10-14T08:03:38.137Z,24.92
2022-10-14T08:06:05.712Z,22.17
2022-10-14T08:08:32.716Z,21.95
2022-10-14T08:11:03.988Z,22.70
2022-10-14T08:13:31.157Z,22.02
2022-10-14T08:15:57.751Z,23.30
2022-10-14T08:18:25.019Z,21.42
2022-10-14T08:20:51.729Z,20.52
2022-10-14T08:23:19.898Z,18.15
2022-10-14T08:25:48.405Z,18.30
2022-10-14T08:28:15.177Z,17.33
2022-10-14T08:30:41.877Z,16.58
2022-10-14T08:33:08.557Z,16.70
2022-10-14T08:35:35.120Z,17.00
2022-10-14T08:38:02.628Z,17.27
2022-10-14T08:40:30.733Z,18.52
2022-10-14T08:43:02.334Z,20.38
2022-10-14T08:45:36.219Z,21.30
2022-10-14T08:48:05.730Z,20.73
2022-10-14T08:53:42.345Z,21.00
2022-10-14T08:56:11.906Z,19.38
2022-10-14T08:58:50.311Z,20.77
2022-10-14T09:01:32.811Z,21.65
2022-10-14T09:04:05.646Z,18.95
2022-10-14T09:06:34.578Z,20.35
2022-10-14T09:09:07.826Z,19.58
2022-10-14T09:11:39.251Z,19.17
2022-10-14T09:14:07.744Z,18.98
2022-10-14T09:16:37.371Z,18.40
2022-10-14T09:19:15.599Z,20.60
2022-10-14T09:21:52.710Z,21.50
2022-10-14T09:24:32.632Z,19.50
2022-10-14T09:27:11.138Z,21.23
2022-10-14T09:30:00.614Z,20.27
2022-10-14T09:32:41.477Z,20.70
2022-10-14T09:35:25.146Z,19.48
2022-10-14T09:37:52.316Z,19.70
2022-10-14T09:40:28.922Z,21.08
2022-10-14T09:43:03.608Z,19.48
2022-10-14T09:45:47.466Z,19.08
2022-10-14T09:51:29.726Z,17.35
2022-10-14T09:53:57.926Z,18.70
2022-10-14T09:56:36.249Z,17.75
2022-10-14T09:59:16.002Z,18.98
2022-10-14T10:01:50.650Z,17.42
2022-10-14T10:04:32.447Z,18.65
2022-10-14T10:07:01.170Z,18.02
2022-10-14T10:09:27.833Z,17.27
2022-10-14T10:11:55.182Z,17.42
2022-10-14T10:14:25.643Z,16.52
2022-10-14T10:17:15.474Z,16.65
2022-10-14T10:19:44.291Z,16.33
2022-10-14T10:25:01.290Z,16.95
2022-10-14T10:27:31.628Z,16.35
2022-10-14T10:30:15.422Z,17.40
2022-10-14T10:32:48.292Z,18.08
2022-10-14T10:35:14.875Z,17.67
2022-10-14T10:37:41.770Z,18.60
2022-10-14T10:40:12.450Z,18.48
2022-10-14T10:43:18.611Z,18.92
2022-10-14T10:45:57.286Z,19.13
2022-10-14T10:48:35.955Z,20.38
2022-10-14T10:51:07.787Z,18.73
2022-10-14T10:53:40.435Z,21.33
2022-10-14T10:56:13.501Z,19.63
2022-10-14T10:58:59.648Z,19.80
2022-10-14T11:01:39.220Z,19.42
2022-10-14T11:04:17.044Z,20.65
2022-10-14T11:07:07.789Z,20.15
2022-10-14T11:10:00.941Z,19.85
2022-10-14T11:12:39.915Z,18.08
2022-10-14T11:15:40.533Z,17.98
2022-10-14T11:18:14.878Z,14.45
2022-10-14T11:24:13.238Z,12.60
2022-10-14T11:29:13.273Z,11.63
2022-10-14T11:35:02.592Z,11.80
2022-10-14T11:37:44.496Z,12.60
2022-10-14T11:40:22.995Z,11.07
2022-10-14T11:43:08.552Z,9.73
2022-10-14T11:45:46.792Z,9.13
2022-10-14T11:48:36.356Z,9.23
2022-10-14T11:54:30.910Z,9.73
2022-10-14T11:57:15.651Z,8.48
2022-10-14T11:59:53.111Z,7.10
2022-10-14T12:02:35.848Z,7.57
2022-10-14T12:05:04.599Z,7.75
2022-10-14T12:07:37.688Z,6.85
2022-10-14T12:10:12.413Z,8.05
2022-10-14T12:12:40.152Z,7.50
2022-10-14T12:15:15.371Z,7.72
2022-10-14T12:17:56.894Z,7.78
2022-10-14T12:20:38.444Z,7.40
2022-10-14T12:23:07.203Z,7.80
2022-10-14T12:25:44.024Z,7.55
2022-10-14T12:28:12.466Z,5.82
2022-10-14T12:30:41.173Z,6.05
2022-10-14T12:33:10.125Z,6.05
2022-10-14T12:35:45.816Z,6.25
2022-10-14T12:38:12.645Z,5.75
2022-10-14T12:40:39.406Z,5.75
2022-10-14T12:43:26.654Z,5.13
2022-10-14T12:46:12.901Z,3.58
2022-10-14T12:48:46.446Z,3.50
2022-10-14T12:51:16.070Z,3.35
2022-10-14T12:54:04.963Z,3.05
2022-10-14T12:56:38.612Z,3.10
2022-10-14T12:59:08.219Z,2.90
2022-10-14T13:01:36.613Z,2.90
2022-10-14T13:04:17.460Z,2.95
2022-10-14T13:07:39.612Z,3.38
2022-10-14T13:10:44.977Z,3.05
2022-10-14T13:13:40.600Z,3.30
2022-10-14T13:16:07.106Z,2.55
2022-10-14T13:18:36.555Z,3.30
2022-10-14T13:21:05.403Z,2.80
2022-10-14T13:23:43.164Z,2.53
2022-10-14T13:26:32.882Z,2.95
2022-10-14T13:29:17.719Z,2.30
2022-10-14T13:31:47.210Z,2.25
2022-10-14T13:34:25.212Z,2.40
2022-10-14T13:37:07.284Z,2.33
2022-10-14T13:39:34.821Z,3.20
2022-10-14T13:42:01.946Z,2.65
2022-10-14T13:44:28.748Z,1.98
2022-10-14T13:46:55.266Z,2.30
2022-10-14T13:49:30.487Z,2.22
2022-10-14T13:52:05.941Z,2.95
2022-10-14T13:54:32.574Z,2.08
2022-10-14T13:57:28.646Z,2.20
2022-10-14T14:00:22.489Z,2.08
2022-10-14T14:02:34.658Z,1.77
2022-10-14T14:05:01.617Z,2.10
2022-10-14T14:08:04.180Z,2.20
2022-10-14T14:10:24.129Z,1.60
2022-10-14T14:12:51.117Z,1.70
2022-10-14T14:15:22.563Z,1.67
2022-10-14T14:17:49.068Z,1.83
2022-10-14T14:20:20.371Z,2.05
2022-10-14T14:22:46.848Z,2.40
2022-10-14T14:25:36.135Z,2.17
2022-10-14T14:28:05.997Z,1.55
2022-10-14T14:30:37.161Z,2.08
2022-10-14T14:33:18.654Z,2.53
2022-10-14T14:35:57.087Z,2.53
2022-10-14T14:38:31.461Z,2.40
2022-10-14T14:41:02.074Z,1.98
2022-10-14T14:43:34.592Z,2.00
2022-10-14T14:46:02.582Z,2.47
2022-10-14T14:48:30.116Z,1.90
2022-10-14T14:50:57.166Z,1.40
2022-10-14T14:53:29.490Z,2.00
2022-10-14T14:55:56.067Z,1.80
2022-10-14T14:58:30.353Z,2.20
2022-10-14T15:00:57.146Z,2.07
2022-10-14T15:03:26.456Z,2.35
2022-10-14T15:06:04.885Z,2.03
2022-10-14T15:08:33.693Z,1.80
2022-10-14T15:11:01.223Z,2.40
2022-10-14T15:13:38.557Z,2.50
2022-10-14T15:16:06.001Z,1.92
2022-10-14T15:18:32.775Z,1.92
2022-10-14T15:21:11.461Z,2.47
2022-10-14T15:23:39.053Z,2.38
2022-10-14T15:26:31.340Z,2.03
2022-10-14T15:29:17.915Z,2.90
2022-10-14T15:31:46.786Z,3.17
2022-10-14T15:34:31.383Z,2.78
2022-10-14T15:36:58.043Z,3.28
2022-10-14T15:39:24.563Z,2.60
2022-10-14T15:41:51.121Z,2.10
2022-10-14T15:44:17.590Z,2.20
2022-10-14T15:47:04.007Z,2.05
2022-10-14T15:49:33.513Z,2.38
2022-10-14T15:51:59.991Z,2.25
2022-10-14T15:54:27.396Z,2.33
2022-10-14T15:59:23.843Z,2.67
2022-10-14T16:01:50.907Z,2.72
2022-10-14T16:04:24.384Z,2.78
2022-10-14T16:06:54.695Z,3.10
2022-10-14T16:09:22.524Z,4.20
2022-10-14T16:11:57.458Z,4.20
2022-10-14T16:14:27.694Z,4.22
2022-10-14T16:16:54.655Z,4.72
2022-10-14T16:19:21.234Z,4.68
2022-10-14T16:21:49.715Z,4.50
2022-10-14T16:24:21.189Z,4.25
2022-10-14T16:26:51.490Z,3.75
2022-10-14T16:29:19.166Z,3.60
2022-10-14T16:31:49.247Z,3.35
2022-10-14T16:34:20.761Z,3.60
2022-10-14T16:36:48.861Z,3.33
2022-10-14T16:39:15.949Z,4.00
2022-10-14T16:41:42.648Z,4.10
2022-10-14T16:44:24.443Z,3.45
2022-10-14T16:47:11.281Z,4.47
2022-10-14T16:49:38.298Z,4.05
2022-10-14T16:52:05.357Z,4.65
2022-10-14T16:54:31.891Z,4.80
2022-10-14T16:56:58.924Z,5.15
2022-10-14T16:59:25.815Z,4.95
2022-10-14T17:01:52.783Z,3.90
2022-10-14T17:04:22.583Z,4.30
2022-10-14T17:06:49.608Z,5.50
2022-10-14T17:09:17.659Z,4.88
2022-10-14T17:11:44.425Z,5.43
2022-10-14T17:14:13.988Z,6.95
2022-10-14T17:16:41.128Z,6.88
2022-10-14T17:19:07.699Z,6.07
2022-10-14T17:21:34.367Z,6.00
2022-10-14T17:24:02.017Z,6.63
2022-10-14T17:26:30.517Z,6.95
2022-10-14T17:28:57.528Z,7.20
2022-10-14T17:31:24.954Z,7.40
2022-10-14T17:33:51.949Z,8.55
2022-10-14T17:36:24.486Z,7.90
2022-10-14T17:38:52.013Z,7.00
2022-10-14T17:41:18.610Z,7.80
2022-10-14T17:43:49.339Z,8.25
2022-10-14T17:46:18.280Z,7.97
2022-10-14T17:48:49.579Z,7.70
2022-10-14T17:51:16.089Z,9.93
2022-10-14T17:53:42.586Z,9.30
2022-10-14T17:56:12.042Z,10.65
2022-10-14T17:58:39.346Z,10.20
2022-10-14T18:01:09.808Z,11.05
2022-10-14T18:03:37.481Z,10.73
2022-10-14T18:06:18.655Z,12.30
2022-10-14T18:08:56.133Z,12.05
2022-10-14T18:11:24.201Z,12.48
2022-10-14T18:13:56.603Z,12.00
2022-10-14T18:16:25.080Z,12.80
2022-10-14T18:18:53.244Z,13.25
2022-10-14T18:21:20.383Z,12.40
2022-10-14T18:23:47.458Z,13.23
2022-10-14T18:26:16.445Z,14.57
2022-10-14T18:28:48.564Z,14.43
2022-10-14T18:31:19.447Z,14.82
2022-10-14T18:33:47.409Z,15.85
2022-10-14T18:36:16.993Z,15.80
2022-10-14T18:38:48.626Z,15.48
2022-10-14T18:41:15.308Z,15.23
2022-10-14T18:43:42.536Z,14.38
2022-10-14T18:46:20.431Z,15.18
2022-10-14T18:48:49.022Z,15.05
2022-10-14T18:51:17.985Z,15.77
2022-10-14T18:53:46.238Z,14.90
2022-10-14T18:56:17.823Z,16.45
2022-10-14T18:58:46.397Z,14.80
2022-10-14T19:01:14.522Z,16.02
2022-10-14T19:03:41.880Z,16.15
2022-10-14T19:06:10.064Z,12.93
2022-10-14T19:08:38.015Z,13.05
2022-10-14T19:11:09.683Z,11.25
2022-10-14T19:13:37.576Z,12.10
2022-10-14T19:16:08.388Z,11.85
2022-10-14T19:18:35.599Z,10.45
2022-10-14T19:21:10.159Z,11.90
2022-10-14T19:23:41.078Z,10.90
2022-10-14T19:26:09.328Z,10.48
2022-10-14T19:28:36.413Z,10.43
2022-10-14T19:31:12.023Z,10.02
2022-10-14T19:33:40.378Z,9.73
2022-10-14T19:36:07.483Z,8.68
2022-10-14T19:38:34.917Z,9.27
2022-10-14T19:41:03.231Z,9.50
2022-10-14T19:43:30.320Z,9.73
2022-10-14T19:45:58.908Z,10.65
2022-10-14T19:48:26.239Z,9.52
2022-10-14T19:50:52.766Z,11.10
2022-10-14T19:53:19.375Z,9.98
2022-10-14T19:55:45.889Z,9.30
2022-10-14T19:58:12.429Z,11.13
2022-10-14T20:00:38.936Z,9.85
2022-10-14T20:03:05.402Z,11.32
2022-10-14T20:05:32.288Z,10.48
2022-10-14T20:07:58.847Z,11.05
2022-10-14T20:10:25.652Z,10.50
2022-10-14T20:12:52.144Z,10.75
2022-10-14T20:15:18.786Z,11.77
2022-10-14T20:17:45.615Z,10.75
2022-10-14T20:20:12.914Z,10.55
2022-10-14T20:22:39.400Z,10.88
2022-10-14T20:25:06.127Z,9.48
2022-10-14T20:27:32.627Z,9.77
2022-10-14T20:29:59.139Z,10.30
2022-10-14T20:32:25.802Z,9.63
2022-10-14T20:34:52.373Z,9.48
2022-10-14T20:37:19.180Z,9.50
2022-10-14T20:39:47.511Z,8.57
2022-10-14T20:42:14.040Z,8.57
2022-10-14T20:44:40.532Z,9.75
2022-10-14T20:47:08.487Z,10.00
2022-10-14T20:49:34.992Z,10.50
2022-10-14T20:52:01.515Z,12.20
2022-10-14T20:54:28.043Z,13.07
2022-10-14T20:56:54.512Z,14.15
2022-10-14T20:59:21.077Z,15.15
2022-10-14T21:01:47.660Z,15.30
2022-10-14T21:04:14.207Z,15.73
2022-10-14T21:06:41.166Z,15.10
2022-10-14T21:09:07.982Z,16.90
2022-10-14T21:11:34.537Z,17.90
2022-10-14T21:14:01.099Z,17.90
2022-10-14T21:16:32.939Z,18.33
2022-10-14T21:19:03.037Z,17.42
2022-10-14T21:21:34.342Z,19.77
2022-10-14T21:24:00.810Z,19.88
2022-10-14T21:26:28.530Z,19.27
2022-10-14T21:28:55.178Z,19.15
2022-10-14T21:31:21.922Z,20.38
2022-10-14T21:33:54.202Z,19.25
2022-10-14T21:36:20.694Z,19.70
2022-10-14T21:38:47.276Z,18.83
2022-10-14T21:41:13.998Z,20.63
2022-10-14T21:43:40.713Z,20.45
2022-10-14T21:46:13.042Z,20.58
2022-10-14T21:48:40.530Z,19.98
2022-10-14T21:51:11.963Z,19.10
2022-10-14T21:53:39.611Z,19.48
2022-10-14T21:56:06.609Z,21.20
2022-10-14T21:58:33.691Z,21.23
2022-10-14T22:01:05.855Z,21.35
2022-10-14T22:03:33.056Z,19.40
2022-10-14T22:06:00.939Z,20.63
2022-10-14T22:08:47.411Z,21.75
2022-10-14T22:11:26.665Z,20.42
2022-10-14T22:13:54.237Z,20.92
2022-10-14T22:16:20.813Z,20.75
2022-10-14T22:18:50.527Z,20.05
2022-10-14T22:21:18.882Z,20.30
2022-10-14T22:23:46.180Z,19.63
2022-10-14T22:26:14.033Z,21.15
2022-10-14T22:28:41.056Z,20.55
2022-10-14T22:31:13.297Z,20.27
2022-10-14T22:33:40.171Z,20.65
2022-10-14T22:36:19.347Z,21.10
2022-10-14T22:38:50.048Z,20.00
2022-10-14T22:41:17.335Z,20.33
2022-10-14T22:43:51.770Z,21.15
2022-10-14T22:46:22.284Z,20.60
2022-10-14T22:48:49.556Z,21.08
2022-10-14T22:51:18.610Z,21.42
2022-10-14T22:53:46.360Z,20.20
2022-10-14T22:56:16.024Z,21.40
2022-10-14T22:58:42.753Z,21.73
2022-10-14T23:01:11.427Z,22.77
2022-10-14T23:03:38.116Z,23.98
2022-10-14T23:06:07.027Z,24.60
2022-10-14T23:08:34.706Z,23.65
2022-10-14T23:11:02.247Z,23.48
2022-10-14T23:13:29.028Z,23.55
2022-10-14T23:16:00.260Z,25.00
2022-10-14T23:18:28.043Z,25.25
2022-10-14T23:20:54.821Z,23.92
2022-10-14T23:23:21.681Z,25.55
2022-10-14T23:25:48.259Z,26.42
2022-10-14T23:28:15.161Z,25.25
2022-10-14T23:30:41.728Z,26.02
2022-10-14T23:33:10.800Z,26.90
2022-10-14T23:35:38.737Z,25.15
2022-10-14T23:38:05.310Z,26.85
2022-10-14T23:40:31.812Z,23.65
2022-10-14T23:42:58.377Z,25.70
2022-10-14T23:45:24.897Z,24.63
2022-10-14T23:47:51.358Z,25.95
2022-10-14T23:50:17.942Z,26.25
2022-10-14T23:52:45.887Z,26.70
2022-10-14T23:55:13.345Z,26.88
2022-10-14T23:57:40.386Z,26.45
